createdAt,value
2018-12-23T03:20:28.547Z,57.40
2018-12-23T03:23:25.387Z,57.30
2018-12-23T03:26:21.021Z,56.90
2018-12-23T03:29:17.269Z,56.70
2018-12-23T03:32:13.391Z,56.70
2018-12-23T03:35:10.349Z,56.70
2018-12-23T03:38:06.340Z,56.80
2018-12-23T03:41:02.819Z,56.90
2018-12-23T03:44:00.050Z,56.70
2018-12-23T03:46:56.708Z,56.80
2018-12-23T03:50:01.599Z,57.10
2018-12-23T03:52:58.989Z,57.00
2018-12-23T03:55:57.587Z,57.50
2018-12-23T03:59:04.111Z,57.00
2018-12-23T04:01:58.057Z,57.00
2018-12-23T04:04:54.293Z,57.20
2018-12-23T04:07:50.418Z,57.30
2018-12-23T04:10:49.813Z,57.50
2018-12-23T04:13:46.361Z,57.70
2018-12-23T04:16:43.360Z,57.80
2018-12-23T04:19:40.761Z,57.80
2018-12-23T04:22:38.013Z,57.60
2018-12-23T04:39:25.401Z,56.60
2018-12-23T04:42:21.674Z,56.30
2018-12-23T04:45:18.503Z,56.20
2018-12-23T04:48:15.144Z,55.90
2018-12-23T04:51:11.958Z,55.80
2018-12-23T04:54:08.426Z,55.90
2018-12-23T04:57:05.787Z,55.90
2018-12-23T05:00:02.403Z,56.10
2018-12-23T05:02:59.269Z,56.30
2018-12-23T05:05:57.934Z,56.30
2018-12-23T05:09:11.708Z,56.10
2018-12-23T05:12:08.970Z,56.20
2018-12-23T05:15:05.293Z,56.30
2018-12-23T05:18:02.987Z,56.40
2018-12-23T05:21:00.609Z,56.60
2018-12-23T05:23:57.902Z,56.70
2018-12-23T05:26:55.242Z,56.70
2018-12-23T05:29:52.315Z,56.40
2018-12-23T05:32:49.028Z,56.10
2018-12-23T05:35:46.304Z,56.00
2018-12-23T05:38:42.639Z,55.70
2018-12-23T05:41:39.384Z,55.30
2018-12-23T05:44:36.416Z,55.10
2018-12-23T05:47:37.644Z,55.00
2018-12-23T05:50:42.819Z,54.80
2018-12-23T05:53:39.039Z,54.90
2018-12-23T05:56:40.378Z,54.50
2018-12-23T05:59:36.519Z,54.30
2018-12-23T06:02:32.777Z,53.70
2018-12-23T06:05:29.129Z,52.80
2018-12-23T06:08:25.783Z,52.30
2018-12-23T06:11:23.084Z,51.70
2018-12-23T06:14:19.421Z,51.60
2018-12-23T06:17:15.139Z,52.00
2018-12-23T06:20:11.262Z,52.00
2018-12-23T06:23:14.530Z,51.60
2018-12-23T06:26:11.200Z,51.60
2018-12-23T06:29:08.689Z,52.10
2018-12-23T06:32:05.337Z,51.30
2018-12-23T06:35:02.280Z,51.10
2018-12-23T06:38:04.022Z,51.20
2018-12-23T06:40:59.815Z,50.40
2018-12-23T06:43:56.993Z,50.10
2018-12-23T06:46:53.459Z,50.70
2018-12-23T06:49:53.551Z,49.80
2018-12-23T06:52:50.705Z,49.80
2018-12-23T06:55:47.849Z,49.50
2018-12-23T06:58:44.016Z,48.60
2018-12-23T07:01:40.962Z,48.30
2018-12-23T07:04:56.202Z,48.10
2018-12-23T07:07:52.717Z,48.90
2018-12-23T07:10:49.189Z,48.10
2018-12-23T07:13:45.128Z,47.50
2018-12-23T07:16:41.276Z,47.30
2018-12-23T07:19:37.369Z,47.20
2018-12-23T07:22:33.714Z,47.00
2018-12-23T07:25:29.034Z,46.60
2018-12-23T07:28:25.848Z,46.10
2018-12-23T07:31:21.732Z,45.30
2018-12-23T07:34:19.404Z,44.90
2018-12-23T07:37:16.156Z,44.70
2018-12-23T07:40:15.200Z,44.30
2018-12-23T07:43:13.167Z,44.20
2018-12-23T07:46:09.563Z,44.10
2018-12-23T07:49:06.342Z,43.10
2018-12-23T07:52:05.643Z,42.80
2018-12-23T07:55:03.822Z,43.00
2018-12-23T07:58:01.181Z,42.70
2018-12-23T08:00:58.748Z,42.80
2018-12-23T08:03:58.024Z,43.20
2018-12-23T08:06:54.056Z,43.10
2018-12-23T08:09:50.100Z,43.00
2018-12-23T08:12:47.147Z,43.00
2018-12-23T08:15:43.167Z,43.50
2018-12-23T08:18:44.022Z,43.80
2018-12-23T08:21:39.940Z,43.10
2018-12-23T08:24:37.300Z,42.40
2018-12-23T08:27:36.307Z,42.10
2018-12-23T08:30:32.533Z,42.20
2018-12-23T08:33:30.911Z,42.30
2018-12-23T08:36:27.964Z,41.60
2018-12-23T08:39:24.612Z,40.80
2018-12-23T08:42:20.837Z,39.70
2018-12-23T08:45:17.066Z,40.00
2018-12-23T08:48:13.471Z,40.50
2018-12-23T08:51:09.836Z,40.20
2018-12-23T08:54:06.387Z,39.90
2018-12-23T08:57:03.292Z,40.10
2018-12-23T08:59:59.775Z,40.20
2018-12-23T09:02:56.690Z,40.20
2018-12-23T09:06:04.639Z,40.00
2018-12-23T09:09:27.548Z,40.10
2018-12-23T09:12:41.973Z,40.10
2018-12-23T09:15:49.792Z,40.00
2018-12-23T09:18:47.780Z,40.20
2018-12-23T09:21:43.899Z,39.90
2018-12-23T09:24:40.246Z,39.60
2018-12-23T09:27:39.387Z,39.40
2018-12-23T09:30:36.037Z,38.90
2018-12-23T09:33:32.521Z,38.70
2018-12-23T09:36:29.100Z,38.70
2018-12-23T09:39:25.503Z,38.20
2018-12-23T09:42:21.280Z,38.50
2018-12-23T09:45:17.295Z,38.60
2018-12-23T09:48:12.981Z,38.00
2018-12-23T09:51:09.354Z,38.10
2018-12-23T09:54:06.955Z,38.00
2018-12-23T09:57:03.063Z,38.30
2018-12-23T10:00:03.193Z,38.80
2018-12-23T10:02:56.918Z,38.60
2018-12-23T10:05:53.558Z,38.30
2018-12-23T10:08:49.528Z,38.00
2018-12-23T10:11:45.857Z,37.70
2018-12-23T10:14:46.270Z,37.90
2018-12-23T10:17:40.371Z,38.10
2018-12-23T10:20:36.623Z,37.80
2018-12-23T10:23:32.694Z,38.20
2018-12-23T10:26:28.826Z,38.50
2018-12-23T10:29:24.954Z,38.20
2018-12-23T10:32:21.807Z,38.20
2018-12-23T10:35:18.338Z,38.50
2018-12-23T10:38:18.364Z,38.60
2018-12-23T10:41:11.266Z,38.80
2018-12-23T10:44:07.307Z,38.80
2018-12-23T10:47:06.434Z,39.10
2018-12-23T10:50:04.347Z,39.30
2018-12-23T10:53:00.443Z,39.60
2018-12-23T10:55:57.082Z,39.60
2018-12-23T10:58:53.060Z,39.30
2018-12-23T11:01:49.933Z,39.00
2018-12-23T11:04:50.820Z,39.10
2018-12-23T11:07:46.863Z,39.30
2018-12-23T11:10:43.955Z,39.50
2018-12-23T11:13:40.211Z,39.60
2018-12-23T11:16:36.255Z,39.50
2018-12-23T11:19:32.268Z,39.80
2018-12-23T11:22:32.376Z,40.20
2018-12-23T11:25:28.608Z,40.50
2018-12-23T11:28:24.830Z,40.80
2018-12-23T11:31:21.902Z,40.80
2018-12-23T11:34:21.622Z,40.80
2018-12-23T11:37:17.453Z,40.60
2018-12-23T11:40:13.699Z,41.00
2018-12-23T11:43:11.013Z,41.60
2018-12-23T11:46:12.613Z,41.80
2018-12-23T11:49:08.573Z,42.10
2018-12-23T11:52:04.739Z,42.30
2018-12-23T11:55:05.770Z,42.40
2018-12-23T11:58:02.797Z,42.40
2018-12-23T12:00:59.679Z,42.20
2018-12-23T12:03:56.316Z,42.20
2018-12-23T12:06:55.722Z,42.10
2018-12-23T12:09:51.940Z,42.30
2018-12-23T12:12:48.525Z,42.60
2018-12-23T12:15:44.780Z,42.90
2018-12-23T12:18:41.064Z,43.30
2018-12-23T12:21:37.587Z,43.40
2018-12-23T12:24:36.710Z,43.30
2018-12-23T12:27:33.020Z,43.70
2018-12-23T12:30:29.263Z,44.30
2018-12-23T12:33:26.669Z,44.60
2018-12-23T12:36:23.507Z,44.80
2018-12-23T12:39:19.670Z,44.80
2018-12-23T12:42:15.741Z,44.90
2018-12-23T12:45:11.832Z,45.00
2018-12-23T12:48:07.880Z,45.40
2018-12-23T12:51:05.328Z,45.80
2018-12-23T12:54:01.496Z,46.00
2018-12-23T12:56:58.564Z,45.90
2018-12-23T12:59:54.856Z,45.80
2018-12-23T13:02:51.563Z,46.00
2018-12-23T13:05:58.873Z,46.20
2018-12-23T13:09:00.524Z,46.20
2018-12-23T13:11:54.120Z,46.20
2018-12-23T13:14:51.900Z,46.10
2018-12-23T13:17:47.687Z,46.00
2018-12-23T13:20:43.524Z,46.30
2018-12-23T13:23:39.734Z,46.50
2018-12-23T13:26:36.709Z,46.70
2018-12-23T13:29:32.800Z,46.70
2018-12-23T13:32:29.567Z,46.60
2018-12-23T13:35:25.734Z,45.80
2018-12-23T13:38:22.241Z,46.50
2018-12-23T13:42:10.379Z,46.70
2018-12-23T13:45:42.245Z,46.60
2018-12-23T13:49:07.846Z,46.60
2018-12-23T13:52:23.463Z,46.50
2018-12-23T13:56:00.746Z,46.50
2018-12-23T13:59:44.869Z,46.60
2018-12-23T14:03:24.973Z,46.50
2018-12-23T14:07:08.650Z,46.60
2018-12-23T14:10:18.364Z,46.70
2018-12-23T14:13:14.106Z,47.00
2018-12-23T14:16:10.203Z,47.30
2018-12-23T14:19:06.128Z,47.40
2018-12-23T14:22:13.639Z,47.20
2018-12-23T14:25:10.889Z,47.20
2018-12-23T14:28:08.645Z,47.10
2018-12-23T14:31:05.080Z,47.00
2018-12-23T14:34:01.497Z,46.70
2018-12-23T14:36:57.453Z,46.70
2018-12-23T14:39:53.665Z,46.40
2018-12-23T14:42:49.654Z,46.50
2018-12-23T14:45:46.765Z,46.50
2018-12-23T14:48:45.787Z,46.50
2018-12-23T14:51:44.651Z,46.50
2018-12-23T14:54:40.969Z,46.50
2018-12-23T14:57:36.891Z,46.70
2018-12-23T15:00:33.861Z,46.90
2018-12-23T15:03:29.862Z,47.30
2018-12-23T15:06:29.801Z,47.30
2018-12-23T15:09:34.169Z,47.00
2018-12-23T15:12:25.668Z,46.90
2018-12-23T15:15:34.681Z,46.90
2018-12-23T15:18:31.013Z,47.00
2018-12-23T15:21:27.167Z,47.20
2018-12-23T15:24:23.787Z,47.40
2018-12-23T15:27:38.028Z,47.40
2018-12-23T15:30:34.459Z,47.60
2018-12-23T15:33:30.077Z,47.70
2018-12-23T15:36:27.553Z,47.70
2018-12-23T15:39:23.970Z,47.70
2018-12-23T15:42:20.755Z,47.80
2018-12-23T15:45:17.065Z,47.80
2018-12-23T15:48:13.913Z,47.90
2018-12-23T15:51:12.916Z,48.20
2018-12-23T15:54:26.317Z,48.40
2018-12-23T15:57:22.596Z,48.60
2018-12-23T16:00:18.175Z,48.80
2018-12-23T16:03:17.088Z,49.00
2018-12-23T16:06:18.940Z,49.30
2018-12-23T16:09:15.328Z,49.30
2018-12-23T16:12:13.571Z,49.40
2018-12-23T16:15:09.447Z,49.40
2018-12-23T16:18:05.508Z,49.60
2018-12-23T16:21:04.424Z,49.70
2018-12-23T16:24:00.699Z,49.80
2018-12-23T16:26:57.062Z,49.70
2018-12-23T16:29:54.485Z,49.80
2018-12-23T16:32:50.770Z,49.90
2018-12-23T16:35:46.717Z,49.80
2018-12-23T16:38:43.009Z,49.70
2018-12-23T16:41:39.346Z,49.80
2018-12-23T16:44:35.475Z,49.90
2018-12-23T16:47:30.995Z,50.00
2018-12-23T16:50:28.597Z,49.90
2018-12-23T16:53:27.101Z,50.00
2018-12-23T16:56:20.344Z,50.00
2018-12-23T16:59:16.345Z,50.10
2018-12-23T17:02:13.086Z,50.10
2018-12-23T17:05:08.921Z,50.30
2018-12-23T17:08:04.422Z,50.60
2018-12-23T17:11:00.347Z,50.70
2018-12-23T17:13:56.039Z,50.90
2018-12-23T17:16:52.402Z,51.20
2018-12-23T17:19:48.223Z,51.40
2018-12-23T17:22:45.067Z,51.60
2018-12-23T17:25:41.176Z,51.80
2018-12-23T17:28:37.650Z,52.00
2018-12-23T17:31:34.179Z,52.00
2018-12-23T17:34:30.613Z,52.00
2018-12-23T17:37:26.643Z,52.20
2018-12-23T17:40:22.739Z,52.80
2018-12-23T17:43:18.928Z,52.30
2018-12-23T17:46:15.232Z,52.40
2018-12-23T17:49:11.195Z,52.40
2018-12-23T17:52:08.966Z,52.50
2018-12-23T17:55:04.130Z,52.50
2018-12-23T17:57:59.958Z,52.40
2018-12-23T18:00:55.852Z,52.60
2018-12-23T18:03:52.224Z,52.90
2018-12-23T18:06:48.444Z,53.10
2018-12-23T18:09:47.341Z,53.30
2018-12-23T18:12:41.120Z,53.40
2018-12-23T18:15:37.344Z,53.50
2018-12-23T18:18:36.238Z,53.70
2018-12-23T18:21:34.345Z,54.00
2018-12-23T18:24:30.444Z,54.10
2018-12-23T18:27:26.418Z,54.40
2018-12-23T18:30:23.105Z,54.60
2018-12-23T18:33:21.695Z,55.00
2018-12-23T18:36:27.952Z,55.20
2018-12-23T18:39:23.762Z,55.50
2018-12-23T18:42:19.563Z,55.60
2018-12-23T18:45:15.326Z,55.90
2018-12-23T18:48:10.815Z,56.10
2018-12-23T18:51:06.847Z,56.50
2018-12-23T18:54:06.176Z,56.90
2018-12-23T18:57:12.231Z,57.20
2018-12-23T19:00:08.544Z,57.50
2018-12-23T19:03:05.883Z,57.80
2018-12-23T19:06:02.159Z,57.40
2018-12-23T19:09:37.297Z,58.20
2018-12-23T19:13:25.268Z,58.20
2018-12-23T19:17:04.484Z,57.90
2018-12-23T19:20:24.968Z,57.80
2018-12-23T19:23:49.661Z,57.50
2018-12-23T19:27:35.331Z,57.50
2018-12-23T19:31:08.165Z,57.50
2018-12-23T19:34:42.908Z,57.30
2018-12-23T19:38:13.708Z,57.00
2018-12-23T19:41:41.770Z,56.80
2018-12-23T19:45:20.226Z,56.50
2018-12-23T19:49:12.689Z,56.30
2018-12-23T19:52:35.137Z,56.30
2018-12-23T19:56:13.542Z,56.10
2018-12-23T19:59:42.966Z,56.50
2018-12-23T20:03:05.393Z,55.80
2018-12-23T20:06:40.994Z,55.80
2018-12-23T20:10:12.985Z,55.90
2018-12-23T20:13:40.942Z,55.90
2018-12-23T20:17:26.694Z,55.90
2018-12-23T20:20:47.718Z,56.10
2018-12-23T20:24:21.327Z,56.40
2018-12-23T20:28:00.873Z,56.90
2018-12-23T20:31:48.306Z,57.30
2018-12-23T20:35:16.264Z,57.60
2018-12-23T20:38:34.837Z,57.60
2018-12-23T20:42:06.080Z,57.60
2018-12-23T20:45:50.230Z,57.70
2018-12-23T20:49:39.265Z,57.60
2018-12-23T20:53:14.552Z,57.40
2018-12-23T20:56:41.524Z,57.40
2018-12-23T21:00:08.353Z,57.50
2018-12-23T21:03:31.301Z,57.40
2018-12-23T21:06:52.836Z,57.60
2018-12-23T21:10:45.704Z,57.80
2018-12-23T21:14:24.462Z,57.90
2018-12-23T21:18:14.118Z,57.90
2018-12-23T21:21:47.613Z,58.00
2018-12-23T21:25:30.554Z,57.70
2018-12-23T21:28:49.921Z,57.20
2018-12-23T21:32:38.936Z,57.00
2018-12-23T21:36:24.909Z,56.80
2018-12-23T21:40:05.541Z,56.60
2018-12-23T21:43:39.464Z,56.60
2018-12-23T21:47:16.646Z,56.50
2018-12-23T21:50:47.411Z,56.40
2018-12-23T21:54:18.380Z,56.40
2018-12-23T21:57:59.132Z,56.30
2018-12-23T22:01:31.817Z,56.20
2018-12-23T22:05:00.256Z,56.30
2018-12-23T22:08:51.322Z,56.40
2018-12-23T22:12:23.904Z,56.50
2018-12-23T22:15:20.641Z,56.30
2018-12-23T22:18:17.189Z,56.30
2018-12-23T22:21:13.521Z,56.30
2018-12-23T22:24:15.990Z,56.40
2018-12-23T22:27:12.131Z,57.10
2018-12-23T22:30:25.463Z,56.60
2018-12-23T22:33:23.321Z,56.60
2018-12-23T22:36:22.535Z,56.60
2018-12-23T22:39:20.403Z,56.70
2018-12-23T22:42:16.941Z,56.70
2018-12-23T22:45:13.864Z,56.60
2018-12-23T22:48:10.232Z,56.70
2018-12-23T22:51:06.353Z,56.90
2018-12-23T22:54:02.901Z,56.90
2018-12-23T22:56:58.716Z,56.80
2018-12-23T22:59:55.564Z,56.80
2018-12-23T23:02:51.671Z,56.80
2018-12-23T23:05:48.129Z,56.80
2018-12-23T23:08:44.876Z,56.90
2018-12-23T23:11:49.568Z,56.90
2018-12-23T23:14:37.946Z,56.90
2018-12-23T23:17:36.114Z,57.00
2018-12-23T23:20:35.748Z,57.10
2018-12-23T23:23:32.503Z,57.20
2018-12-23T23:26:28.313Z,57.20
2018-12-23T23:29:25.228Z,57.20
2018-12-23T23:32:23.836Z,57.30
2018-12-23T23:35:30.407Z,57.40
2018-12-23T23:38:26.210Z,57.50
2018-12-23T23:41:22.362Z,57.60
2018-12-23T23:44:19.618Z,57.70
2018-12-23T23:47:16.153Z,57.80
2018-12-23T23:50:15.403Z,58.00
2018-12-23T23:53:11.282Z,58.20
2018-12-23T23:56:07.433Z,58.20
2018-12-23T23:59:11.325Z,58.20
